createdAt,value
2022-08-29T00:00:17.706Z,1.70
2022-08-29T00:02:50.209Z,1.60
2022-08-29T00:05:18.185Z,1.42
2022-08-29T00:07:44.715Z,1.48
2022-08-29T00:10:11.155Z,1.73
2022-08-29T00:12:37.585Z,1.45
2022-08-29T00:15:06.734Z,1.60
2022-08-29T00:17:32.905Z,1.63
2022-08-29T00:19:59.086Z,1.50
2022-08-29T00:22:25.232Z,1.88
2022-08-29T00:24:51.481Z,1.60
2022-08-29T00:27:17.617Z,1.73
2022-08-29T00:29:43.735Z,1.90
2022-08-29T00:32:10.344Z,1.60
2022-08-29T00:34:36.490Z,1.55
2022-08-29T00:37:02.617Z,1.40
2022-08-29T00:39:29.799Z,1.60
2022-08-29T00:41:59.185Z,1.30
2022-08-29T00:44:26.422Z,1.52
2022-08-29T00:46:56.526Z,1.60
2022-08-29T00:49:33.828Z,2.40
2022-08-29T00:52:05.049Z,1.52
2022-08-29T00:54:31.559Z,1.80
2022-08-29T00:56:58.532Z,1.70
2022-08-29T00:59:32.232Z,2.17
2022-08-29T01:01:59.273Z,1.38
2022-08-29T01:04:25.851Z,1.73
2022-08-29T01:06:53.342Z,1.45
2022-08-29T01:09:20.562Z,1.77
2022-08-29T01:12:05.114Z,1.63
2022-08-29T01:14:31.836Z,1.45
2022-08-29T01:17:01.165Z,1.98
2022-08-29T01:20:07.190Z,1.55
2022-08-29T01:23:11.282Z,1.67
2022-08-29T01:25:43.534Z,2.03
2022-08-29T01:28:22.433Z,1.60
2022-08-29T01:31:05.070Z,1.48
2022-08-29T01:33:40.397Z,1.60
2022-08-29T01:36:09.389Z,1.63
2022-08-29T01:38:35.948Z,1.55
2022-08-29T01:41:02.652Z,1.63
2022-08-29T01:43:29.293Z,2.03
2022-08-29T01:45:57.770Z,1.67
2022-08-29T01:48:24.125Z,1.58
2022-08-29T01:50:50.247Z,1.73
2022-08-29T01:53:18.918Z,1.60
2022-08-29T01:55:45.079Z,1.48
2022-08-29T01:58:11.216Z,1.48
2022-08-29T02:00:37.397Z,1.83
2022-08-29T02:03:04.507Z,1.70
2022-08-29T02:05:30.926Z,1.67
2022-08-29T02:07:57.471Z,1.50
2022-08-29T02:10:24.434Z,1.85
2022-08-29T02:12:51.935Z,1.48
2022-08-29T02:15:18.390Z,1.50
2022-08-29T02:17:45.205Z,1.40
2022-08-29T02:20:15.460Z,1.30
2022-08-29T02:22:41.749Z,1.48
2022-08-29T02:25:28.607Z,1.83
2022-08-29T02:27:55.303Z,1.58
2022-08-29T02:30:22.126Z,1.63
2022-08-29T02:32:49.886Z,1.58
2022-08-29T02:35:17.050Z,1.63
2022-08-29T02:37:43.789Z,1.50
2022-08-29T02:40:10.226Z,1.67
2022-08-29T02:42:37.402Z,1.83
2022-08-29T02:45:05.134Z,1.98
2022-08-29T02:47:34.650Z,1.77
2022-08-29T02:50:00.751Z,2.40
2022-08-29T02:52:26.847Z,1.67
2022-08-29T02:54:53.821Z,2.30
2022-08-29T02:57:21.069Z,1.60
2022-08-29T02:59:47.146Z,1.60
2022-08-29T03:02:13.348Z,1.60
2022-08-29T03:04:39.522Z,1.67
2022-08-29T03:07:05.710Z,1.60
2022-08-29T03:09:31.930Z,1.50
2022-08-29T03:11:58.103Z,1.50
2022-08-29T03:14:25.037Z,1.67
2022-08-29T03:16:51.437Z,1.88
2022-08-29T03:19:17.669Z,2.03
2022-08-29T03:21:44.666Z,2.00
2022-08-29T03:24:11.179Z,1.63
2022-08-29T03:26:37.285Z,2.08
2022-08-29T03:29:03.961Z,2.03
2022-08-29T03:31:30.876Z,1.95
2022-08-29T03:33:57.076Z,1.60
2022-08-29T03:36:26.366Z,1.65
2022-08-29T03:38:53.276Z,1.65
2022-08-29T03:41:25.165Z,1.70
2022-08-29T03:43:51.666Z,1.88
2022-08-29T03:46:17.962Z,2.00
2022-08-29T03:48:44.155Z,1.88
2022-08-29T03:51:10.325Z,1.90
2022-08-29T03:53:36.466Z,1.98
2022-08-29T03:56:04.272Z,2.08
2022-08-29T03:58:30.762Z,1.63
2022-08-29T04:00:56.863Z,1.75
2022-08-29T04:03:26.529Z,2.38
2022-08-29T04:05:57.868Z,1.80
2022-08-29T04:08:23.959Z,2.08
2022-08-29T04:10:50.089Z,1.92
2022-08-29T04:13:16.199Z,1.83
2022-08-29T04:15:42.642Z,1.80
2022-08-29T04:18:10.406Z,1.95
2022-08-29T04:20:39.500Z,4.43
2022-08-29T04:23:06.606Z,4.97
2022-08-29T04:25:37.222Z,2.63
2022-08-29T04:28:10.203Z,5.70
2022-08-29T04:30:38.615Z,5.97
2022-08-29T04:33:05.381Z,8.98
2022-08-29T04:35:31.581Z,4.85
2022-08-29T04:37:57.728Z,5.15
2022-08-29T04:40:23.921Z,6.32
2022-08-29T04:42:50.751Z,7.50
2022-08-29T04:45:20.149Z,6.35
2022-08-29T04:47:46.351Z,4.60
2022-08-29T04:50:17.544Z,6.85
2022-08-29T04:52:44.061Z,6.78
2022-08-29T04:55:11.146Z,5.65
2022-08-29T04:57:38.674Z,7.40
2022-08-29T05:00:10.135Z,6.13
2022-08-29T05:02:36.274Z,7.28
2022-08-29T05:05:03.227Z,5.32
2022-08-29T05:07:29.319Z,6.07
2022-08-29T05:09:58.395Z,5.70
2022-08-29T05:12:25.562Z,8.10
2022-08-29T05:14:52.981Z,5.85
2022-08-29T05:17:19.134Z,3.65
2022-08-29T05:19:45.432Z,5.22
2022-08-29T05:22:16.182Z,4.85
2022-08-29T05:24:43.130Z,3.45
2022-08-29T05:27:11.757Z,4.47
2022-08-29T05:29:43.724Z,3.22
2022-08-29T05:32:11.897Z,5.40
2022-08-29T05:34:38.853Z,6.90
2022-08-29T05:37:09.637Z,4.55
2022-08-29T05:39:37.049Z,3.97
2022-08-29T05:42:03.871Z,4.35
2022-08-29T05:44:34.930Z,7.53
2022-08-29T05:47:03.121Z,6.25
2022-08-29T05:49:29.223Z,5.47
2022-08-29T05:51:56.249Z,4.20
2022-08-29T05:54:24.007Z,7.00
2022-08-29T05:56:51.265Z,5.35
2022-08-29T05:59:18.829Z,6.15
2022-08-29T06:01:46.532Z,8.05
2022-08-29T06:04:13.131Z,7.65
2022-08-29T06:06:40.827Z,9.32
2022-08-29T06:09:07.831Z,6.10
2022-08-29T06:11:34.489Z,5.32
2022-08-29T06:14:01.561Z,4.70
2022-08-29T06:16:29.491Z,4.55
2022-08-29T06:18:56.521Z,3.88
2022-08-29T06:21:23.549Z,3.08
2022-08-29T06:23:50.066Z,6.22
2022-08-29T06:26:17.067Z,9.43
2022-08-29T06:28:45.405Z,9.43
2022-08-29T06:31:13.865Z,6.63
2022-08-29T06:33:40.343Z,7.40
2022-08-29T06:36:07.908Z,8.40
2022-08-29T06:38:34.768Z,8.55
2022-08-29T06:41:11.216Z,10.52
2022-08-29T06:43:37.630Z,7.70
2022-08-29T06:46:04.214Z,9.88
2022-08-29T06:48:30.678Z,10.45
2022-08-29T06:50:59.869Z,6.22
2022-08-29T06:53:31.732Z,6.03
2022-08-29T06:56:06.357Z,6.00
2022-08-29T06:58:38.152Z,8.80
2022-08-29T07:01:14.166Z,5.95
2022-08-29T07:03:40.983Z,7.20
2022-08-29T07:06:07.895Z,10.77
2022-08-29T07:08:34.707Z,7.55
2022-08-29T07:11:01.551Z,7.57
2022-08-29T07:13:27.987Z,6.45
2022-08-29T07:15:54.330Z,5.53
2022-08-29T07:18:20.876Z,8.63
2022-08-29T07:20:47.047Z,4.57
2022-08-29T07:23:13.227Z,7.00
2022-08-29T07:25:39.395Z,5.80
2022-08-29T07:28:05.952Z,6.13
2022-08-29T07:30:33.324Z,6.22
2022-08-29T07:32:59.650Z,6.13
2022-08-29T07:35:30.455Z,6.63
2022-08-29T07:37:58.891Z,5.93
2022-08-29T07:40:25.045Z,5.30
2022-08-29T07:42:51.262Z,4.82
2022-08-29T07:45:17.558Z,5.90
2022-08-29T07:47:43.981Z,6.13
2022-08-29T07:50:13.181Z,4.75
2022-08-29T07:52:39.692Z,4.20
2022-08-29T07:55:06.797Z,6.00
2022-08-29T07:57:33.083Z,4.82
2022-08-29T08:00:06.921Z,5.95
2022-08-29T08:02:33.041Z,6.00
2022-08-29T08:04:59.239Z,7.63
2022-08-29T08:07:29.428Z,8.15
2022-08-29T08:09:55.846Z,6.47
2022-08-29T08:12:24.995Z,7.18
2022-08-29T08:14:51.176Z,10.82
2022-08-29T08:17:17.271Z,7.57
2022-08-29T08:19:43.846Z,7.22
2022-08-29T08:22:10.137Z,6.78
2022-08-29T08:24:36.327Z,4.97
2022-08-29T08:27:02.410Z,6.18
2022-08-29T08:29:28.490Z,5.45
2022-08-29T08:31:59.080Z,4.32
2022-08-29T08:34:26.278Z,6.55
2022-08-29T08:36:52.411Z,5.22
2022-08-29T08:39:18.627Z,4.45
2022-08-29T08:41:51.099Z,4.72
2022-08-29T08:44:26.320Z,7.15
2022-08-29T08:46:57.627Z,7.78
2022-08-29T08:49:38.934Z,4.60
2022-08-29T08:52:11.738Z,5.22
2022-08-29T08:54:48.979Z,3.95
2022-08-29T08:57:15.290Z,6.28
2022-08-29T08:59:46.143Z,5.90
2022-08-29T09:02:17.279Z,4.35
2022-08-29T09:05:06.194Z,5.30
2022-08-29T09:07:47.215Z,5.40
2022-08-29T09:10:31.624Z,10.30
2022-08-29T09:13:23.241Z,7.53
2022-08-29T09:15:53.663Z,6.28
2022-08-29T09:18:40.246Z,4.38
2022-08-29T09:21:39.526Z,3.53
2022-08-29T09:24:07.661Z,7.45
2022-08-29T09:26:34.847Z,3.88
2022-08-29T09:29:00.944Z,4.53
2022-08-29T09:31:34.558Z,5.85
2022-08-29T09:34:07.480Z,4.00
2022-08-29T09:36:41.241Z,5.68
2022-08-29T09:39:28.571Z,6.57
2022-08-29T09:42:13.208Z,3.80
2022-08-29T09:44:40.919Z,4.60
2022-08-29T09:47:11.823Z,3.20
2022-08-29T09:49:41.331Z,3.80
2022-08-29T09:52:14.667Z,4.10
2022-08-29T09:54:41.811Z,4.95
2022-08-29T09:57:07.860Z,4.93
2022-08-29T09:59:44.708Z,5.63
2022-08-29T10:02:19.086Z,3.38
2022-08-29T10:04:51.885Z,4.57
2022-08-29T10:07:23.075Z,4.35
2022-08-29T10:09:59.681Z,2.97
2022-08-29T10:12:49.833Z,4.05
2022-08-29T10:15:48.911Z,3.80
2022-08-29T10:18:28.033Z,4.55
2022-08-29T10:21:09.474Z,3.45
2022-08-29T10:23:59.070Z,4.40
2022-08-29T10:27:04.366Z,4.75
2022-08-29T10:29:49.535Z,6.15
2022-08-29T10:32:25.360Z,5.78
2022-08-29T10:35:06.933Z,5.07
2022-08-29T10:37:51.617Z,6.93
2022-08-29T10:40:23.840Z,7.15
2022-08-29T10:42:52.109Z,6.50
2022-08-29T10:45:33.931Z,6.00
2022-08-29T10:48:10.958Z,5.47
2022-08-29T10:50:54.986Z,4.38
2022-08-29T10:53:27.224Z,4.10
2022-08-29T10:56:20.760Z,5.32
2022-08-29T10:59:08.025Z,5.53
2022-08-29T11:01:40.755Z,5.35
2022-08-29T11:04:22.330Z,3.83
2022-08-29T11:06:52.637Z,3.70
2022-08-29T11:09:24.466Z,4.55
2022-08-29T11:11:58.857Z,3.95
2022-08-29T11:14:32.610Z,2.85
2022-08-29T11:16:59.429Z,3.38
2022-08-29T11:19:45.167Z,4.28
2022-08-29T11:22:23.087Z,5.10
2022-08-29T11:25:13.763Z,3.50
2022-08-29T11:27:56.821Z,4.72
2022-08-29T11:30:39.735Z,2.83
2022-08-29T11:33:15.279Z,2.88
2022-08-29T11:36:05.016Z,3.45
2022-08-29T11:38:59.075Z,3.63
2022-08-29T11:41:47.598Z,4.80
2022-08-29T11:44:22.561Z,3.15
2022-08-29T11:46:53.484Z,3.42
2022-08-29T11:49:41.060Z,3.70
2022-08-29T11:52:12.832Z,4.55
2022-08-29T11:54:39.408Z,4.57
2022-08-29T11:57:05.577Z,3.05
2022-08-29T11:59:55.938Z,4.82
2022-08-29T12:02:29.417Z,2.70
2022-08-29T12:05:08.229Z,3.90
2022-08-29T12:07:48.565Z,4.00
2022-08-29T12:10:23.568Z,2.63
2022-08-29T12:13:05.364Z,3.17
2022-08-29T12:15:31.698Z,3.20
2022-08-29T12:18:02.533Z,3.42
2022-08-29T12:20:29.622Z,3.05
2022-08-29T12:23:00.996Z,4.60
2022-08-29T12:25:27.109Z,5.40
2022-08-29T12:28:17.669Z,3.20
2022-08-29T12:30:50.738Z,3.78
2022-08-29T12:33:36.226Z,5.38
2022-08-29T12:36:16.176Z,3.50
2022-08-29T12:39:05.964Z,2.90
2022-08-29T12:41:50.344Z,2.75
2022-08-29T12:44:23.811Z,4.43
2022-08-29T12:46:54.296Z,3.65
2022-08-29T12:49:26.150Z,4.63
2022-08-29T12:51:58.195Z,3.70
2022-08-29T12:54:37.074Z,3.85
2022-08-29T12:57:06.466Z,4.40
2022-08-29T12:59:33.923Z,3.30
2022-08-29T13:02:00.556Z,4.13
2022-08-29T13:04:33.063Z,2.95
2022-08-29T13:07:04.409Z,3.38
2022-08-29T13:09:58.005Z,4.28
2022-08-29T13:12:30.730Z,3.78
2022-08-29T13:14:58.563Z,3.72
2022-08-29T13:17:28.623Z,2.58
2022-08-29T13:20:32.316Z,3.97
2022-08-29T13:23:23.674Z,3.35
2022-08-29T13:25:55.979Z,3.80
2022-08-29T13:28:25.790Z,5.03
2022-08-29T13:31:17.189Z,3.58
2022-08-29T13:33:49.375Z,4.97
2022-08-29T13:36:39.688Z,3.08
2022-08-29T13:39:18.463Z,2.67
2022-08-29T13:41:46.051Z,2.90
2022-08-29T13:44:51.323Z,3.28
2022-08-29T13:47:22.296Z,4.38
2022-08-29T13:49:49.427Z,4.13
2022-08-29T13:52:17.021Z,2.90
2022-08-29T13:54:43.577Z,3.25
2022-08-29T13:57:21.445Z,4.13
2022-08-29T13:59:48.027Z,3.10
2022-08-29T14:02:15.101Z,3.15
2022-08-29T14:04:43.311Z,3.22
2022-08-29T14:07:15.089Z,2.85
2022-08-29T14:09:44.901Z,3.63
2022-08-29T14:12:11.978Z,2.75
2022-08-29T14:14:38.369Z,2.60
2022-08-29T14:17:04.584Z,2.42
2022-08-29T14:19:32.496Z,2.97
2022-08-29T14:21:59.746Z,2.30
2022-08-29T14:24:30.186Z,3.83
2022-08-29T14:27:01.662Z,2.63
2022-08-29T14:29:30.793Z,3.22
2022-08-29T14:31:58.353Z,2.20
2022-08-29T14:34:24.730Z,2.65
2022-08-29T14:36:53.351Z,2.72
2022-08-29T14:39:19.625Z,2.13
2022-08-29T14:41:52.665Z,2.78
2022-08-29T14:44:20.825Z,1.83
2022-08-29T14:46:47.313Z,2.28
2022-08-29T14:49:13.551Z,2.30
2022-08-29T14:51:40.621Z,2.42
2022-08-29T14:54:06.822Z,2.20
2022-08-29T14:56:48.137Z,2.17
2022-08-29T14:59:16.179Z,3.95
2022-08-29T15:01:42.498Z,3.45
2022-08-29T15:04:09.271Z,1.67
2022-08-29T15:06:37.541Z,2.00
2022-08-29T15:09:04.568Z,2.70
2022-08-29T15:11:30.737Z,2.30
2022-08-29T15:14:00.989Z,2.10
2022-08-29T15:16:31.164Z,1.75
2022-08-29T15:21:43.429Z,2.08
2022-08-29T15:24:09.545Z,1.77
2022-08-29T15:26:35.909Z,1.50
2022-08-29T15:29:02.143Z,1.77
2022-08-29T15:31:30.211Z,2.03
2022-08-29T15:33:57.153Z,1.65
2022-08-29T15:36:23.381Z,1.60
2022-08-29T15:38:49.501Z,1.90
2022-08-29T15:41:15.655Z,3.88
2022-08-29T15:43:42.195Z,1.65
2022-08-29T15:46:08.345Z,1.55
2022-08-29T15:48:34.601Z,2.92
2022-08-29T15:51:00.697Z,1.55
2022-08-29T15:53:26.825Z,2.22
2022-08-29T15:55:52.913Z,2.28
2022-08-29T15:58:19.026Z,2.00
2022-08-29T16:00:45.215Z,2.00
2022-08-29T16:03:11.851Z,1.65
2022-08-29T16:05:39.562Z,1.90
2022-08-29T16:08:06.417Z,1.58
2022-08-29T16:10:32.883Z,3.33
2022-08-29T16:12:59.602Z,2.15
2022-08-29T16:15:30.164Z,2.42
2022-08-29T16:17:58.363Z,2.20
2022-08-29T16:20:25.129Z,1.60
2022-08-29T16:22:51.868Z,1.88
2022-08-29T16:25:18.556Z,1.77
2022-08-29T16:27:45.195Z,1.58
2022-08-29T16:30:11.910Z,1.58
2022-08-29T16:32:38.423Z,1.30
2022-08-29T16:35:05.769Z,2.60
2022-08-29T16:37:33.185Z,1.85
2022-08-29T16:40:00.990Z,1.73
2022-08-29T16:42:30.467Z,1.40
2022-08-29T16:44:57.350Z,1.80
2022-08-29T16:47:23.586Z,1.60
2022-08-29T16:49:49.756Z,1.60
2022-08-29T16:52:15.878Z,1.38
2022-08-29T16:54:42.010Z,1.90
2022-08-29T16:57:08.604Z,1.70
2022-08-29T16:59:35.112Z,1.30
2022-08-29T17:02:03.553Z,1.70
2022-08-29T17:04:30.091Z,2.58
2022-08-29T17:06:56.390Z,2.10
2022-08-29T17:09:24.030Z,2.17
2022-08-29T17:11:51.565Z,1.77
2022-08-29T17:14:20.300Z,3.30
2022-08-29T17:16:50.349Z,2.13
2022-08-29T17:19:17.486Z,1.85
2022-08-29T17:21:44.471Z,2.13
2022-08-29T17:24:11.601Z,1.70
2022-08-29T17:26:40.790Z,2.63
2022-08-29T17:29:08.286Z,1.70
2022-08-29T17:31:38.719Z,1.70
2022-08-29T17:34:06.079Z,1.67
2022-08-29T17:36:35.858Z,1.45
2022-08-29T17:39:03.003Z,1.40
2022-08-29T17:41:30.647Z,2.35
2022-08-29T17:43:56.749Z,1.52
2022-08-29T17:46:23.048Z,1.80
2022-08-29T17:48:49.194Z,1.70
2022-08-29T17:51:15.764Z,2.08
2022-08-29T17:53:42.700Z,3.10
2022-08-29T17:56:16.017Z,1.30
2022-08-29T17:58:42.337Z,2.67
2022-08-29T18:01:15.075Z,1.70
2022-08-29T18:03:43.741Z,1.90
2022-08-29T18:06:09.871Z,1.58
2022-08-29T18:08:36.055Z,1.70
2022-08-29T18:11:02.203Z,2.55
2022-08-29T18:13:28.397Z,1.33
2022-08-29T18:15:54.819Z,1.27
2022-08-29T18:18:21.175Z,1.50
2022-08-29T18:20:47.325Z,1.30
2022-08-29T18:23:13.462Z,1.75
2022-08-29T18:25:39.559Z,1.60
2022-08-29T18:28:07.685Z,1.50
2022-08-29T18:30:34.743Z,1.58
2022-08-29T18:33:00.870Z,1.60
2022-08-29T18:35:26.990Z,1.40
2022-08-29T18:37:53.117Z,1.50
2022-08-29T18:40:19.399Z,1.30
2022-08-29T18:42:45.583Z,1.33
2022-08-29T18:45:12.381Z,1.30
2022-08-29T18:47:38.707Z,1.60
2022-08-29T18:50:24.956Z,2.22
2022-08-29T18:52:52.135Z,1.83
2022-08-29T18:55:18.588Z,1.13
2022-08-29T18:57:46.422Z,1.50
2022-08-29T19:00:13.447Z,1.40
2022-08-29T19:02:39.606Z,1.35
2022-08-29T19:05:06.506Z,1.50
2022-08-29T19:07:32.623Z,1.55
2022-08-29T19:09:58.745Z,1.17
2022-08-29T19:12:24.841Z,1.38
2022-08-29T19:14:50.968Z,1.30
2022-08-29T19:17:17.097Z,1.15
2022-08-29T19:20:01.711Z,1.20
2022-08-29T19:22:28.139Z,1.50
2022-08-29T19:24:54.439Z,1.33
2022-08-29T19:27:41.753Z,1.50
2022-08-29T19:30:07.565Z,1.60
2022-08-29T19:32:34.126Z,1.25
2022-08-29T19:35:01.602Z,1.70
2022-08-29T19:37:28.107Z,1.10
2022-08-29T19:39:55.251Z,1.35
2022-08-29T19:42:21.333Z,1.23
2022-08-29T19:44:47.483Z,1.27
2022-08-29T19:47:13.932Z,1.55
2022-08-29T19:49:42.058Z,1.30
2022-08-29T19:52:09.525Z,1.25
2022-08-29T19:54:36.175Z,1.25
2022-08-29T19:57:02.275Z,1.50
2022-08-29T19:59:31.225Z,1.30
2022-08-29T20:01:58.069Z,1.30
2022-08-29T20:04:24.287Z,1.30
2022-08-29T20:06:56.257Z,1.63
2022-08-29T20:09:26.457Z,1.30
2022-08-29T20:11:52.875Z,1.55
2022-08-29T20:14:18.945Z,1.38
2022-08-29T20:16:45.415Z,1.67
2022-08-29T20:19:11.949Z,1.40
2022-08-29T20:21:38.625Z,1.85
2022-08-29T20:24:05.031Z,1.20
2022-08-29T20:26:34.138Z,1.45
2022-08-29T20:29:03.616Z,1.23
2022-08-29T20:31:29.825Z,1.60
2022-08-29T20:33:56.071Z,1.20
2022-08-29T20:36:41.716Z,1.38
2022-08-29T20:39:10.672Z,2.75
2022-08-29T20:41:36.981Z,1.23
2022-08-29T20:44:06.953Z,1.35
2022-08-29T20:46:42.177Z,1.20
2022-08-29T20:49:09.670Z,1.20
2022-08-29T20:51:37.078Z,1.42
2022-08-29T20:54:03.832Z,1.10
2022-08-29T20:56:30.477Z,2.28
2022-08-29T20:58:56.563Z,1.23
2022-08-29T21:01:22.826Z,1.15
2022-08-29T21:04:07.561Z,1.40
2022-08-29T21:06:33.673Z,1.42
2022-08-29T21:09:00.185Z,1.30
2022-08-29T21:11:26.722Z,1.83
2022-08-29T21:13:53.520Z,1.40
2022-08-29T21:16:20.098Z,1.13
2022-08-29T21:18:49.295Z,1.20
2022-08-29T21:21:15.383Z,1.75
2022-08-29T21:23:41.693Z,1.30
2022-08-29T21:26:07.932Z,1.52
2022-08-29T21:28:34.222Z,1.30
2022-08-29T21:31:07.328Z,1.33
2022-08-29T21:33:36.739Z,0.98
2022-08-29T21:36:07.617Z,1.30
2022-08-29T21:38:34.438Z,1.48
2022-08-29T21:41:00.801Z,1.80
2022-08-29T21:43:26.910Z,1.40
2022-08-29T21:45:53.293Z,1.45
2022-08-29T21:48:19.414Z,1.27
2022-08-29T21:50:45.530Z,1.25
2022-08-29T21:53:16.484Z,1.20
2022-08-29T21:55:42.705Z,1.42
2022-08-29T21:58:08.797Z,1.35
2022-08-29T22:00:36.225Z,1.48
2022-08-29T22:03:05.939Z,1.40
2022-08-29T22:05:32.278Z,1.20
2022-08-29T22:08:00.246Z,1.10
2022-08-29T22:10:29.695Z,1.58
2022-08-29T22:12:56.809Z,1.33
2022-08-29T22:15:43.050Z,1.77
2022-08-29T22:18:09.382Z,1.20
2022-08-29T22:20:37.770Z,1.20
2022-08-29T22:23:04.723Z,1.40
2022-08-29T22:25:31.324Z,1.20
2022-08-29T22:27:58.725Z,0.80
2022-08-29T22:30:28.880Z,1.05
2022-08-29T22:33:00.099Z,1.17
2022-08-29T22:35:27.183Z,1.23
2022-08-29T22:37:54.495Z,0.98
2022-08-29T22:40:20.951Z,1.30
2022-08-29T22:42:47.174Z,1.30
2022-08-29T22:45:15.437Z,1.20
2022-08-29T22:47:43.304Z,1.13
2022-08-29T22:50:14.736Z,1.10
2022-08-29T22:52:40.889Z,1.30
2022-08-29T22:55:09.459Z,1.05
2022-08-29T22:57:35.979Z,0.95
2022-08-29T23:00:05.096Z,1.20
2022-08-29T23:02:32.121Z,1.00
2022-08-29T23:04:59.213Z,1.30
2022-08-29T23:07:25.323Z,0.90
2022-08-29T23:09:51.422Z,1.23
2022-08-29T23:12:17.677Z,1.20
2022-08-29T23:14:48.250Z,1.10
2022-08-29T23:17:15.578Z,1.20
2022-08-29T23:19:42.099Z,0.90
2022-08-29T23:22:10.342Z,1.10
2022-08-29T23:24:37.305Z,0.98
2022-08-29T23:27:04.520Z,1.20
2022-08-29T23:29:32.237Z,1.30
2022-08-29T23:31:58.594Z,1.20
2022-08-29T23:34:24.720Z,1.20
2022-08-29T23:36:50.813Z,1.13
2022-08-29T23:39:16.937Z,1.20
2022-08-29T23:41:43.110Z,1.00
2022-08-29T23:44:09.248Z,1.20
2022-08-29T23:46:37.209Z,0.90
2022-08-29T23:49:05.259Z,0.90
2022-08-29T23:51:31.915Z,1.98
2022-08-29T23:53:58.618Z,0.90
2022-08-29T23:56:25.352Z,1.08
2022-08-29T23:58:54.301Z,1.10
